Time;durP1;ratioP1;P1;durP2;ratioP2;P2;SDS_P1;SDS_P2;PMS_P1;PMS_P2;Temp;Humidity;BMP_temperature;BMP_pressure;BME280_temperature;BME280_humidity;BME280_pressure;Samples;Min_cycle;Max_cycle;Signal;HPM_P1;HPM_P2
2023/03/22 00:01:12;;;;;;;40.27;22.37;;;4.30;99.90;;;;;;5014426;28;20209;-82
2023/03/22 00:03:39;;;;;;;44.43;22.43;;;4.20;99.90;;;;;;5015248;28;20612;-82
2023/03/22 00:06:07;;;;;;;42.97;21.63;;;4.10;99.90;;;;;;5015653;28;20229;-81
2023/03/22 00:08:34;;;;;;;42.07;21.43;;;4.10;99.90;;;;;;5014868;28;20202;-83
2023/03/22 00:11:02;;;;;;;39.93;21.33;;;4.00;99.90;;;;;;5014946;28;20203;-81
2023/03/22 00:13:29;;;;;;;38.70;20.30;;;3.90;99.90;;;;;;5014624;28;20204;-81
2023/03/22 00:15:58;;;;;;;37.63;20.83;;;3.80;99.90;;;;;;5015143;28;20289;-81
2023/03/22 00:18:25;;;;;;;39.80;21.80;;;3.80;99.90;;;;;;5033074;28;20306;-82
2023/03/22 00:20:55;;;;;;;38.00;19.30;;;3.70;99.90;;;;;;5032558;28;20296;-81
2023/03/22 00:23:24;;;;;;;37.43;20.10;;;3.70;99.90;;;;;;5031397;28;20199;-80
2023/03/22 00:25:51;;;;;;;34.40;19.23;;;3.60;99.90;;;;;;5031164;28;20199;-81
2023/03/22 00:28:18;;;;;;;34.87;19.03;;;3.50;99.90;;;;;;5007677;28;20318;-81
2023/03/22 00:30:58;;;;;;;38.67;20.50;;;3.50;99.90;;;;;;5013017;28;20199;-81
2023/03/22 00:33:25;;;;;;;37.53;20.40;;;3.50;99.90;;;;;;4995293;28;20200;-81
2023/03/22 00:36:13;;;;;;;34.97;19.13;;;3.40;99.90;;;;;;4994924;28;20195;-81
2023/03/22 00:38:39;;;;;;;39.27;20.30;;;3.30;99.90;;;;;;4995255;28;20232;-81
2023/03/22 00:41:13;;;;;;;40.53;19.87;;;3.20;99.90;;;;;;5012532;28;20215;-82
2023/03/22 00:43:39;;;;;;;40.00;20.67;;;3.30;99.90;;;;;;4995266;28;20535;-83
2023/03/22 00:46:07;;;;;;;41.47;20.17;;;3.20;99.90;;;;;;4994862;28;20210;-83
2023/03/22 00:48:34;;;;;;;39.03;20.13;;;3.10;99.90;;;;;;4995039;28;20206;-83
2023/03/22 00:51:01;;;;;;;38.40;19.47;;;3.20;99.90;;;;;;4994825;28;20216;-83
2023/03/22 00:53:28;;;;;;;35.70;19.83;;;3.20;99.90;;;;;;5011671;28;20197;-83
2023/03/22 00:55:58;;;;;;;41.17;20.47;;;3.10;99.90;;;;;;4994718;28;20659;-83
2023/03/22 00:58:25;;;;;;;38.47;19.63;;;3.10;99.90;;;;;;4994590;28;20687;-83
2023/03/22 01:00:52;;;;;;;36.63;20.03;;;3.10;99.90;;;;;;4994915;28;20195;-83
2023/03/22 01:03:20;;;;;;;35.90;19.93;;;3.00;99.90;;;;;;4994993;28;20656;-82
2023/03/22 01:05:48;;;;;;;44.57;20.47;;;3.00;99.90;;;;;;5012187;28;20610;-81
2023/03/22 01:08:15;;;;;;;37.17;19.97;;;2.80;99.90;;;;;;4994446;28;20674;-81
2023/03/22 01:10:43;;;;;;;43.93;22.27;;;2.80;99.90;;;;;;4994540;28;20225;-83
2023/03/22 01:13:12;;;;;;;40.93;21.37;;;2.70;99.90;;;;;;4994422;28;20567;-85
2023/03/22 01:15:43;;;;;;;40.03;20.57;;;2.70;99.90;;;;;;4994309;28;20203;-77
2023/03/22 01:18:10;;;;;;;43.53;22.20;;;2.70;99.90;;;;;;5010702;28;20230;-80
2023/03/22 01:20:37;;;;;;;40.37;20.83;;;2.70;99.90;;;;;;4994317;28;20271;-81
2023/03/22 01:23:05;;;;;;;39.20;21.40;;;2.70;99.90;;;;;;4977804;28;20295;-81
2023/03/22 01:25:32;;;;;;;38.37;21.67;;;2.60;99.90;;;;;;4959021;28;20556;-84
2023/03/22 01:28:01;;;;;;;40.37;21.70;;;2.60;99.90;;;;;;4975447;28;20320;-80
2023/03/22 01:30:30;;;;;;;39.80;21.77;;;2.60;99.90;;;;;;4991188;28;20252;-84
2023/03/22 01:32:57;;;;;;;42.90;22.83;;;2.50;99.90;;;;;;4990831;28;20259;-80
2023/03/22 01:35:24;;;;;;;43.57;22.43;;;2.50;99.90;;;;;;4991112;28;20703;-81
2023/03/22 01:37:51;;;;;;;47.43;23.30;;;2.50;99.90;;;;;;4992263;28;20206;-81
2023/03/22 01:40:17;;;;;;;49.67;23.80;;;2.40;99.90;;;;;;4991187;28;20206;-80
2023/03/22 01:42:44;;;;;;;47.10;24.53;;;2.40;99.90;;;;;;4992245;28;20216;-81
2023/03/22 01:45:15;;;;;;;45.90;25.27;;;2.40;99.90;;;;;;4990972;28;20216;-80
2023/03/22 01:47:54;;;;;;;48.53;24.47;;;2.40;99.90;;;;;;4990499;28;20655;-80
2023/03/22 01:50:23;;;;;;;49.47;25.57;;;2.30;99.90;;;;;;4990738;28;20259;-81
2023/03/22 01:52:51;;;;;;;48.27;26.13;;;2.30;99.90;;;;;;4990951;28;20196;-80
2023/03/22 01:55:21;;;;;;;49.70;25.17;;;2.20;99.90;;;;;;4992186;28;20207;-81
2023/03/22 01:57:49;;;;;;;51.10;25.77;;;2.20;99.90;;;;;;4990711;28;20197;-80
2023/03/22 02:00:17;;;;;;;50.93;26.00;;;2.10;99.90;;;;;;4991886;28;20626;-80
2023/03/22 02:02:47;;;;;;;51.30;26.10;;;2.10;99.90;;;;;;4990624;28;20209;-80
2023/03/22 02:05:16;;;;;;;54.43;27.30;;;2.10;99.90;;;;;;4974642;28;20204;-81
2023/03/22 02:07:43;;;;;;;55.37;27.73;;;2.10;99.90;;;;;;4991023;28;20197;-80
2023/03/22 02:10:17;;;;;;;53.80;27.40;;;2.00;99.90;;;;;;4996016;28;20623;-80
2023/03/22 02:13:18;;;;;;;53.63;28.50;;;2.00;99.90;;;;;;4994536;28;20201;-80
2023/03/22 02:16:11;;;;;;;58.07;28.10;;;2.00;99.90;;;;;;4994529;28;20201;-80
2023/03/22 02:19:01;;;;;;;53.60;27.47;;;1.90;99.90;;;;;;4954274;29;20222;-80
2023/03/22 02:21:42;;;;;;;58.77;29.10;;;2.00;99.90;;;;;;4882328;29;20262;-80
2023/03/22 02:24:40;;;;;;;60.30;29.80;;;2.00;99.90;;;;;;4897638;29;20209;-84
2023/03/22 02:27:57;;;;;;;60.50;29.73;;;2.00;99.90;;;;;;4897005;29;20205;-84
2023/03/22 02:30:51;;;;;;;59.27;29.00;;;1.90;99.90;;;;;;4863473;29;20617;-84
2023/03/22 02:33:41;;;;;;;58.53;29.50;;;1.80;99.90;;;;;;4878819;29;20626;-83
2023/03/22 02:36:13;;;;;;;63.87;30.80;;;1.80;99.90;;;;;;4878485;29;20208;-82
2023/03/22 02:38:52;;;;;;;60.67;30.00;;;1.80;99.90;;;;;;4863144;29;20243;-80
2023/03/22 02:41:41;;;;;;;60.30;29.63;;;1.70;99.90;;;;;;4878708;29;20213;-78
2023/03/22 02:44:24;;;;;;;59.33;30.00;;;1.70;99.90;;;;;;4878711;29;20209;-78
2023/03/22 02:47:06;;;;;;;59.70;30.30;;;1.70;99.90;;;;;;4878339;29;20204;-78
2023/03/22 02:50:02;;;;;;;62.13;30.33;;;1.60;99.90;;;;;;4878458;29;20205;-77
2023/03/22 02:52:51;;;;;;;61.37;30.77;;;1.60;99.90;;;;;;4878600;29;20208;-77
2023/03/22 02:55:26;;;;;;;63.57;30.67;;;1.60;99.90;;;;;;4896331;29;20217;-78
2023/03/22 02:57:52;;;;;;;57.73;30.37;;;1.60;99.90;;;;;;4947997;28;20223;-78
2023/03/22 03:00:19;;;;;;;60.63;30.57;;;1.50;99.90;;;;;;4977565;28;20198;-79
2023/03/22 03:02:51;;;;;;;63.93;31.43;;;1.40;99.90;;;;;;4994751;28;20190;-80
2023/03/22 03:05:20;;;;;;;60.50;31.10;;;1.40;99.90;;;;;;4977568;28;20205;-84
2023/03/22 03:07:52;;;;;;;61.67;31.37;;;1.40;99.90;;;;;;4994786;28;20201;-85
2023/03/22 03:10:20;;;;;;;63.63;31.33;;;1.40;99.90;;;;;;4993994;28;20575;-80
2023/03/22 03:12:47;;;;;;;64.27;31.47;;;1.30;99.90;;;;;;4994678;28;20197;-79
2023/03/22 03:15:17;;;;;;;59.97;30.93;;;1.20;99.90;;;;;;4977836;28;20193;-80
2023/03/22 03:18:20;;;;;;;61.97;31.53;;;1.20;99.90;;;;;;4994397;28;20268;-80
2023/03/22 03:21:08;;;;;;;65.10;31.07;;;1.10;99.90;;;;;;4914186;29;20296;-83
2023/03/22 03:23:35;;;;;;;63.63;31.43;;;1.10;99.90;;;;;;4915396;29;20192;-80
2023/03/22 03:26:16;;;;;;;65.80;31.07;;;1.10;99.90;;;;;;4899874;29;20204;-80
2023/03/22 03:29:10;;;;;;;67.00;31.60;;;1.00;99.90;;;;;;4899530;29;20247;-80
2023/03/22 03:31:37;;;;;;;60.87;30.93;;;1.00;99.90;;;;;;4915331;29;20690;-84
2023/03/22 03:34:07;;;;;;;61.50;31.00;;;1.00;99.90;;;;;;4899468;29;20227;-83
2023/03/22 03:36:38;;;;;;;64.07;31.23;;;0.90;99.90;;;;;;4915271;29;20203;-84
2023/03/22 03:39:10;;;;;;;67.73;31.83;;;0.90;99.90;;;;;;4914999;29;20227;-79
2023/03/22 03:41:41;;;;;;;60.83;30.23;;;1.00;99.90;;;;;;4915323;29;20200;-80
2023/03/22 03:44:08;;;;;;;67.77;32.70;;;1.00;99.90;;;;;;4915001;29;20227;-80
2023/03/22 03:46:35;;;;;;;61.40;30.03;;;0.90;99.90;;;;;;4915077;29;20214;-78
2023/03/22 03:49:03;;;;;;;70.53;30.63;;;0.90;99.90;;;;;;4914858;29;20275;-79
2023/03/22 03:51:32;;;;;;;61.87;30.03;;;1.00;99.90;;;;;;4899295;29;20680;-79
2023/03/22 03:53:59;;;;;;;60.83;28.90;;;0.90;99.90;;;;;;4915449;29;20653;-79
2023/03/22 03:56:26;;;;;;;63.33;29.83;;;0.90;99.90;;;;;;4927567;28;20312;-80
2023/03/22 03:58:53;;;;;;;62.80;29.53;;;0.90;99.90;;;;;;4976482;28;20221;-83
2023/03/22 04:01:20;;;;;;;63.37;29.97;;;0.90;99.90;;;;;;4994230;28;20693;-85
2023/03/22 04:03:49;;;;;;;60.57;28.90;;;1.00;99.90;;;;;;4994040;28;20209;-84
2023/03/22 04:06:16;;;;;;;59.77;29.70;;;0.90;99.90;;;;;;4994077;28;20188;-81
2023/03/22 04:08:45;;;;;;;59.50;29.43;;;0.90;99.90;;;;;;4976297;28;20658;-80
2023/03/22 04:11:12;;;;;;;62.20;29.70;;;0.90;99.90;;;;;;4976120;28;20220;-81
2023/03/22 04:13:41;;;;;;;58.50;28.67;;;1.00;99.90;;;;;;4993487;28;20186;-80
2023/03/22 04:16:08;;;;;;;62.93;29.00;;;1.00;99.90;;;;;;4993813;28;20208;-80
2023/03/22 04:18:35;;;;;;;60.63;28.77;;;0.90;99.90;;;;;;4991973;28;20631;-79
2023/03/22 04:21:02;;;;;;;59.20;28.90;;;0.90;99.90;;;;;;4976212;28;20189;-80
2023/03/22 04:23:31;;;;;;;59.63;28.33;;;0.90;99.90;;;;;;4975882;28;20246;-80
2023/03/22 04:25:58;;;;;;;57.30;28.40;;;0.90;99.90;;;;;;4993759;28;20196;-86
2023/03/22 04:28:25;;;;;;;59.13;27.97;;;0.90;99.90;;;;;;4996007;28;20229;-84
2023/03/22 04:30:52;;;;;;;57.93;27.53;;;0.90;99.90;;;;;;4992997;28;20189;-85
2023/03/22 04:33:21;;;;;;;60.73;26.73;;;0.90;99.90;;;;;;4993676;28;20643;-87
2023/03/22 04:35:49;;;;;;;57.13;27.03;;;0.90;99.90;;;;;;4993234;28;20558;-84
2023/03/22 04:38:17;;;;;;;60.50;27.80;;;0.90;99.90;;;;;;4992356;28;20671;-84
2023/03/22 04:40:45;;;;;;;53.47;26.70;;;0.90;99.90;;;;;;4991647;28;20189;-81
2023/03/22 04:43:14;;;;;;;54.53;26.57;;;0.90;99.90;;;;;;4992065;28;20709;-81
2023/03/22 04:45:41;;;;;;;54.97;27.20;;;0.90;99.90;;;;;;4992728;28;20200;-80
2023/03/22 04:48:09;;;;;;;59.40;27.90;;;0.80;99.90;;;;;;4991650;28;20216;-80
2023/03/22 04:50:38;;;;;;;53.77;27.53;;;0.90;99.90;;;;;;4993070;28;20185;-78
2023/03/22 04:53:07;;;;;;;57.00;27.70;;;0.90;99.90;;;;;;4991550;28;20207;-78
2023/03/22 04:55:34;;;;;;;54.23;27.43;;;1.00;99.90;;;;;;4991752;28;20570;-78
2023/03/22 04:58:01;;;;;;;54.10;26.30;;;1.00;99.90;;;;;;4991237;28;20197;-78
2023/03/22 05:00:29;;;;;;;55.10;27.60;;;1.00;99.90;;;;;;4991512;28;20236;-77
2023/03/22 05:03:00;;;;;;;53.67;26.07;;;1.00;99.90;;;;;;4992532;28;20243;-77
2023/03/22 05:05:28;;;;;;;52.07;25.47;;;1.00;99.90;;;;;;4992622;28;20189;-78
2023/03/22 05:07:55;;;;;;;54.20;25.87;;;1.10;99.90;;;;;;4975632;28;20207;-77
2023/03/22 05:10:22;;;;;;;49.67;24.90;;;1.10;99.90;;;;;;4991416;28;20587;-78
2023/03/22 05:12:49;;;;;;;50.10;25.30;;;1.10;99.90;;;;;;4993161;28;20208;-78
2023/03/22 05:15:16;;;;;;;52.77;25.10;;;1.30;99.90;;;;;;4992629;28;20188;-79
2023/03/22 05:17:42;;;;;;;52.30;24.87;;;1.40;99.90;;;;;;4991093;28;20228;-79
2023/03/22 05:20:11;;;;;;;51.87;24.87;;;1.40;99.90;;;;;;4990777;28;20216;-80
2023/03/22 05:22:39;;;;;;;51.80;24.50;;;1.50;99.90;;;;;;4991252;28;20240;-79
2023/03/22 05:25:09;;;;;;;49.80;25.17;;;1.60;99.90;;;;;;4992339;28;20196;-80
2023/03/22 05:27:37;;;;;;;48.37;23.97;;;1.70;99.90;;;;;;4993017;28;20649;-79
2023/03/22 05:30:06;;;;;;;49.70;24.77;;;1.80;99.90;;;;;;5012105;28;20654;-79
2023/03/22 05:32:36;;;;;;;49.77;24.83;;;2.00;99.90;;;;;;5010340;28;20240;-79
2023/03/22 05:35:04;;;;;;;50.17;24.30;;;2.20;99.90;;;;;;4994534;28;20302;-78
2023/03/22 05:37:31;;;;;;;49.40;23.90;;;2.30;99.90;;;;;;4994065;28;20190;-79
2023/03/22 05:39:57;;;;;;;48.70;24.00;;;2.30;99.90;;;;;;5012015;28;20226;-78
2023/03/22 05:42:24;;;;;;;48.57;23.90;;;2.50;99.90;;;;;;4993420;28;20640;-79
2023/03/22 05:44:51;;;;;;;45.97;23.07;;;2.60;99.90;;;;;;4993740;28;20196;-79
2023/03/22 05:47:19;;;;;;;45.13;23.60;;;2.80;99.90;;;;;;4994307;28;20209;-80
2023/03/22 05:49:46;;;;;;;44.63;22.53;;;2.90;99.90;;;;;;4977740;28;20202;-79
2023/03/22 05:52:13;;;;;;;41.30;22.17;;;3.10;99.90;;;;;;4994385;28;20206;-81
2023/03/22 05:54:40;;;;;;;44.43;22.30;;;3.20;99.90;;;;;;4993959;28;20199;-81
2023/03/22 05:57:08;;;;;;;42.43;22.17;;;3.30;99.90;;;;;;5011538;28;20232;-81
2023/03/22 05:59:35;;;;;;;41.07;21.13;;;3.40;99.90;;;;;;4994169;28;20689;-84
2023/03/22 06:02:02;;;;;;;42.07;21.77;;;3.50;99.90;;;;;;4993963;28;20678;-77
2023/03/22 06:04:29;;;;;;;39.03;20.03;;;3.60;99.90;;;;;;4993542;28;20218;-82
2023/03/22 06:06:56;;;;;;;38.00;19.90;;;3.70;99.90;;;;;;5011816;28;20184;-82
2023/03/22 06:09:23;;;;;;;36.83;19.23;;;3.80;99.90;;;;;;4993835;28;20341;-81
2023/03/22 06:11:50;;;;;;;34.80;19.33;;;4.00;99.90;;;;;;5011358;28;20190;-83
2023/03/22 06:14:17;;;;;;;33.50;19.00;;;4.10;99.90;;;;;;4994068;28;20204;-80
2023/03/22 06:16:43;;;;;;;34.13;18.03;;;4.30;99.90;;;;;;5010995;28;20206;-81
2023/03/22 06:19:10;;;;;;;34.00;18.47;;;4.40;99.90;;;;;;4993635;28;20219;-80
2023/03/22 06:21:37;;;;;;;33.17;17.93;;;4.40;99.90;;;;;;4993885;28;20218;-80
2023/03/22 06:24:04;;;;;;;34.13;18.97;;;4.50;99.90;;;;;;4994383;28;20199;-80
2023/03/22 06:26:31;;;;;;;33.20;18.20;;;4.50;99.90;;;;;;4993700;28;20192;-81
2023/03/22 06:28:58;;;;;;;35.60;17.30;;;4.60;99.90;;;;;;4993279;28;20252;-83
2023/03/22 06:31:25;;;;;;;31.20;17.30;;;4.60;99.90;;;;;;5011493;28;20197;-78
2023/03/22 06:33:52;;;;;;;32.37;16.90;;;4.70;99.90;;;;;;4993792;28;20298;-82
2023/03/22 06:36:21;;;;;;;28.40;15.83;;;4.90;99.90;;;;;;4993646;28;20225;-80
2023/03/22 06:38:49;;;;;;;32.27;16.13;;;5.00;99.90;;;;;;5010892;28;20211;-80
2023/03/22 06:41:16;;;;;;;29.77;16.50;;;5.10;99.90;;;;;;5011306;28;20224;-79
2023/03/22 06:43:43;;;;;;;30.67;15.90;;;5.30;99.90;;;;;;4993427;28;20569;-81
2023/03/22 06:46:10;;;;;;;33.77;17.10;;;5.60;99.90;;;;;;4993503;28;20204;-80
2023/03/22 06:48:37;;;;;;;28.10;15.33;;;5.80;99.90;;;;;;5011522;28;20187;-84
2023/03/22 06:51:04;;;;;;;26.50;14.97;;;5.90;99.90;;;;;;4993609;28;20554;-81
2023/03/22 06:53:31;;;;;;;25.13;14.60;;;5.90;99.90;;;;;;5010891;28;20207;-81
2023/03/22 06:55:58;;;;;;;25.83;14.50;;;5.90;99.90;;;;;;4997045;28;20195;-82
2023/03/22 06:58:25;;;;;;;25.37;14.97;;;5.90;99.90;;;;;;4997092;28;20224;-82
2023/03/22 07:00:54;;;;;;;26.60;15.40;;;6.20;99.90;;;;;;4996549;28;20298;-78
2023/03/22 07:03:22;;;;;;;26.77;14.10;;;6.40;99.90;;;;;;4996480;28;20203;-84
2023/03/22 07:05:49;;;;;;;27.30;14.67;;;6.40;99.90;;;;;;5014514;28;20215;-80
2023/03/22 07:08:16;;;;;;;24.13;14.07;;;6.60;99.90;;;;;;4996900;28;20200;-80
2023/03/22 07:10:49;;;;;;;22.80;13.37;;;6.70;99.90;;;;;;4996906;28;20322;-81
2023/03/22 07:13:16;;;;;;;24.60;13.23;;;6.90;99.90;;;;;;5014060;28;20227;-87
2023/03/22 07:15:43;;;;;;;20.93;12.33;;;7.10;99.90;;;;;;5014903;28;20206;-75
2023/03/22 07:18:10;;;;;;;23.77;12.43;;;7.30;99.90;;;;;;4996396;28;20622;-75
2023/03/22 07:20:40;;;;;;;22.03;12.20;;;7.40;99.90;;;;;;5010937;28;20598;-77
2023/03/22 07:23:09;;;;;;;19.53;11.40;;;7.50;99.90;;;;;;5016138;28;20202;-77
2023/03/22 07:25:39;;;;;;;21.23;11.87;;;7.60;99.90;;;;;;5016204;28;20727;-78
2023/03/22 07:28:06;;;;;;;19.50;11.40;;;7.70;99.90;;;;;;5034124;28;20224;-77
2023/03/22 07:30:36;;;;;;;19.87;11.23;;;7.80;99.90;;;;;;5015444;28;20290;-75
2023/03/22 07:33:04;;;;;;;19.13;10.93;;;7.80;99.90;;;;;;5016091;28;20209;-73
2023/03/22 07:38:22;;;;;;;17.50;10.67;;;8.00;99.90;;;;;;5074945;26;20324;-75
2023/03/22 07:40:53;;;;;;;16.83;10.77;;;8.00;99.90;;;;;;5075453;28;20248;-76
2023/03/22 07:43:21;;;;;;;16.90;10.57;;;8.20;99.90;;;;;;5075724;28;20626;-77
2023/03/22 07:45:49;;;;;;;20.67;11.57;;;8.40;99.90;;;;;;5075382;28;20655;-75
2023/03/22 07:48:17;;;;;;;20.23;11.13;;;8.50;99.90;;;;;;5093490;28;20194;-77
2023/03/22 07:50:44;;;;;;;19.77;11.13;;;8.60;99.90;;;;;;5075324;28;20201;-76
2023/03/22 07:53:12;;;;;;;19.60;10.80;;;8.60;99.90;;;;;;5075161;28;20192;-77
2023/03/22 07:55:41;;;;;;;20.73;11.60;;;8.80;99.90;;;;;;5075029;28;20185;-76
2023/03/22 07:58:08;;;;;;;18.57;10.97;;;9.00;99.90;;;;;;5075117;28;20190;-77
2023/03/22 08:00:35;;;;;;;18.73;10.93;;;9.30;99.90;;;;;;5074810;28;20209;-77
2023/03/22 08:03:02;;;;;;;20.67;11.40;;;9.60;99.90;;;;;;5093651;28;20307;-75
2023/03/22 08:05:29;;;;;;;16.87;10.70;;;9.80;99.90;;;;;;5092103;28;20610;-75
2023/03/22 08:07:56;;;;;;;18.17;11.00;;;9.80;99.90;;;;;;5093360;28;20648;-77
2023/03/22 08:10:23;;;;;;;20.10;11.30;;;10.00;99.90;;;;;;5074349;28;20213;-78
2023/03/22 08:12:50;;;;;;;19.70;10.83;;;10.20;99.90;;;;;;5093421;28;20193;-78
2023/03/22 08:15:17;;;;;;;20.57;11.37;;;10.40;99.90;;;;;;5074730;28;20623;-77
2023/03/22 08:17:44;;;;;;;19.07;10.73;;;10.50;99.90;;;;;;5074394;28;20610;-75
2023/03/22 08:20:11;;;;;;;20.40;11.33;;;10.60;99.90;;;;;;5074691;28;20228;-72
2023/03/22 08:22:38;;;;;;;19.00;11.47;;;10.80;99.90;;;;;;5074463;28;20232;-74
2023/03/22 08:25:06;;;;;;;20.10;11.40;;;10.90;99.90;;;;;;5074801;28;20194;-74
2023/03/22 08:27:33;;;;;;;22.27;11.70;;;11.10;99.90;;;;;;5074319;28;20607;-74
2023/03/22 08:30:01;;;;;;;18.30;11.40;;;11.10;99.90;;;;;;5092783;28;20182;-78
2023/03/22 08:32:28;;;;;;;19.50;11.57;;;11.10;99.90;;;;;;5092718;28;20275;-77
2023/03/22 08:34:55;;;;;;;20.17;11.60;;;11.10;99.90;;;;;;5074371;28;20194;-73
2023/03/22 08:37:22;;;;;;;18.50;11.23;;;11.20;99.90;;;;;;5074140;28;20229;-74
2023/03/22 08:39:48;;;;;;;19.23;11.53;;;11.20;99.90;;;;;;5092168;28;20325;-77
2023/03/22 08:42:15;;;;;;;20.73;12.07;;;11.10;99.90;;;;;;5074686;28;20197;-81
2023/03/22 08:44:42;;;;;;;18.03;11.67;;;11.10;99.90;;;;;;5074179;28;20204;-75
2023/03/22 08:47:09;;;;;;;21.27;11.67;;;11.20;99.90;;;;;;5074431;28;20204;-75
2023/03/22 08:49:36;;;;;;;19.20;11.50;;;11.20;99.90;;;;;;5092126;28;20227;-75
2023/03/22 08:52:06;;;;;;;19.30;10.97;;;11.20;99.90;;;;;;5074543;28;20204;-82
2023/03/22 08:54:33;;;;;;;18.13;11.20;;;11.20;99.90;;;;;;5073854;28;20314;-74
2023/03/22 08:57:02;;;;;;;17.77;11.07;;;11.20;99.90;;;;;;5073700;28;20198;-74
2023/03/22 08:59:29;;;;;;;19.23;11.33;;;11.30;99.90;;;;;;5073924;28;20208;-75
2023/03/22 09:01:56;;;;;;;19.20;10.50;;;11.30;99.90;;;;;;5091918;28;20193;-73
2023/03/22 09:04:23;;;;;;;19.20;10.87;;;11.40;99.90;;;;;;5073689;28;20200;-72
2023/03/22 09:06:50;;;;;;;17.80;10.73;;;11.40;99.90;;;;;;5091782;28;20197;-73
2023/03/22 09:09:17;;;;;;;17.00;10.63;;;11.50;99.90;;;;;;5091872;28;20574;-73
2023/03/22 09:11:44;;;;;;;17.70;10.73;;;11.30;99.90;;;;;;5092156;28;20197;-76
2023/03/22 09:14:11;;;;;;;17.67;10.40;;;11.30;99.90;;;;;;5073804;28;20201;-76
2023/03/22 09:16:37;;;;;;;16.57;10.30;;;11.10;99.90;;;;;;5073282;28;20200;-71
2023/03/22 09:19:05;;;;;;;19.43;11.07;;;11.10;99.90;;;;;;5057044;28;20197;-72
2023/03/22 09:21:32;;;;;;;19.80;10.87;;;11.00;99.90;;;;;;5091717;28;20213;-73
2023/03/22 09:23:59;;;;;;;17.57;10.60;;;11.00;99.90;;;;;;5073103;28;20198;-71
2023/03/22 09:26:26;;;;;;;18.03;10.90;;;11.00;99.90;;;;;;5091729;28;20669;-75
2023/03/22 09:28:53;;;;;;;16.53;10.13;;;11.10;99.90;;;;;;5073459;28;20200;-74
2023/03/22 09:31:20;;;;;;;18.50;11.13;;;11.20;99.90;;;;;;5091665;28;20553;-74
2023/03/22 09:33:47;;;;;;;19.77;11.40;;;11.30;99.90;;;;;;5073508;28;20213;-78
2023/03/22 09:36:14;;;;;;;17.33;10.83;;;11.50;99.90;;;;;;5091462;28;20200;-78
2023/03/22 09:38:41;;;;;;;17.97;11.40;;;11.50;99.90;;;;;;5073233;28;20193;-81
2023/03/22 09:41:36;;;;;;;17.80;11.13;;;11.60;99.90;;;;;;5073438;28;20228;-78
2023/03/22 09:44:35;;;;;;;15.77;10.03;;;11.60;99.90;;;;;;5073649;28;20197;-82
2023/03/22 09:47:06;;;;;;;17.97;10.60;;;11.60;99.90;;;;;;5091366;28;20210;-87
2023/03/22 09:49:41;;;;;;;17.80;10.70;;;11.70;99.90;;;;;;5073469;28;20197;-77
2023/03/22 09:52:19;;;;;;;17.50;10.00;;;11.70;99.90;;;;;;5073355;28;20201;-74
2023/03/22 09:54:46;;;;;;;16.83;10.50;;;11.80;99.90;;;;;;5091682;28;20185;-75
2023/03/22 09:57:23;;;;;;;17.63;10.43;;;11.60;99.90;;;;;;5073365;28;20217;-77
2023/03/22 09:59:57;;;;;;;16.80;10.23;;;11.70;99.90;;;;;;5091232;28;20267;-76
2023/03/22 10:02:52;;;;;;;19.87;10.87;;;11.80;99.90;;;;;;5073479;28;20196;-76
2023/03/22 10:05:40;;;;;;;19.07;11.13;;;11.80;99.90;;;;;;5073086;28;20639;-75
2023/03/22 10:08:23;;;;;;;21.43;11.50;;;11.90;99.90;;;;;;5091077;28;20663;-77
2023/03/22 10:10:51;;;;;;;20.60;11.40;;;12.00;99.90;;;;;;5091449;28;20550;-82
2023/03/22 10:13:37;;;;;;;18.50;10.90;;;12.00;99.90;;;;;;5073515;28;20193;-85
2023/03/22 10:16:15;;;;;;;17.47;10.60;;;12.00;99.90;;;;;;5073555;28;20544;-85
2023/03/22 10:18:46;;;;;;;17.67;10.63;;;12.00;99.90;;;;;;5075102;28;20193;-83
2023/03/22 10:21:16;;;;;;;17.73;10.57;;;11.90;99.90;;;;;;5072966;28;20225;-76
2023/03/22 10:23:53;;;;;;;17.23;10.00;;;12.00;99.90;;;;;;5073113;28;20688;-77
2023/03/22 10:26:30;;;;;;;16.37;9.63;;;12.00;99.90;;;;;;5091170;28;20296;-76
2023/03/22 10:29:02;;;;;;;16.50;9.90;;;12.10;99.90;;;;;;5092103;28;20235;-78
2023/03/22 10:31:32;;;;;;;17.63;10.13;;;12.30;99.90;;;;;;5076660;28;20201;-79
2023/03/22 10:34:15;;;;;;;16.63;10.13;;;12.20;99.90;;;;;;5076968;28;20227;-76
2023/03/22 10:36:43;;;;;;;18.40;9.90;;;12.20;99.90;;;;;;5073228;28;20268;-81
2023/03/22 10:39:27;;;;;;;16.80;9.80;;;12.20;99.90;;;;;;5056981;28;20542;-82
2023/03/22 10:41:58;;;;;;;16.73;9.70;;;12.20;99.90;;;;;;5073300;28;20257;-78
2023/03/22 10:44:28;;;;;;;14.37;9.37;;;12.10;99.90;;;;;;5073442;28;20526;-79
2023/03/22 10:47:05;;;;;;;16.13;9.33;;;12.30;99.90;;;;;;5074801;28;20186;-78
2023/03/22 10:49:38;;;;;;;18.07;9.30;;;12.20;99.90;;;;;;5073138;28;20294;-83
2023/03/22 10:52:38;;;;;;;17.27;8.83;;;12.20;99.90;;;;;;5074372;28;20232;-79
2023/03/22 10:55:14;;;;;;;15.30;9.27;;;12.30;99.90;;;;;;5074451;28;20277;-81
2023/03/22 10:57:45;;;;;;;16.67;9.40;;;12.10;99.90;;;;;;5075265;28;20182;-81
2023/03/22 11:00:16;;;;;;;15.73;9.23;;;12.30;99.90;;;;;;5073093;28;20202;-75
2023/03/22 11:02:57;;;;;;;15.87;9.07;;;12.30;99.90;;;;;;5073364;28;20206;-79
2023/03/22 11:05:27;;;;;;;16.93;9.40;;;12.40;99.90;;;;;;5073143;28;20285;-79
2023/03/22 11:07:59;;;;;;;15.30;9.07;;;12.50;99.90;;;;;;5073845;28;20252;-83
2023/03/22 11:10:32;;;;;;;16.73;9.60;;;12.50;99.90;;;;;;5074235;28;20619;-86
2023/03/22 11:13:08;;;;;;;17.40;9.27;;;12.30;99.90;;;;;;5072979;28;20216;-78
2023/03/22 11:15:40;;;;;;;15.37;8.80;;;12.30;99.90;;;;;;5072636;28;20569;-81
2023/03/22 11:18:13;;;;;;;17.47;9.30;;;12.20;99.90;;;;;;5074020;28;20201;-77
2023/03/22 11:20:54;;;;;;;12.80;8.37;;;12.40;99.90;;;;;;5072067;28;20698;-76
2023/03/22 11:23:23;;;;;;;14.30;8.57;;;12.30;99.90;;;;;;5073166;28;20198;-79
2023/03/22 11:25:54;;;;;;;15.60;7.77;;;12.40;99.90;;;;;;5072349;28;20190;-82
2023/03/22 11:28:31;;;;;;;13.83;7.93;;;12.40;99.90;;;;;;5072537;28;20202;-76
2023/03/22 11:31:07;;;;;;;12.37;7.80;;;12.50;99.90;;;;;;5056506;28;20205;-83
2023/03/22 11:33:35;;;;;;;13.83;8.20;;;12.50;99.90;;;;;;5073011;28;20244;-82
2023/03/22 11:36:17;;;;;;;13.87;8.10;;;12.70;99.90;;;;;;5072390;28;20206;-83
2023/03/22 11:38:44;;;;;;;12.83;7.87;;;12.80;99.90;;;;;;5076218;28;20192;-79
2023/03/22 11:41:24;;;;;;;12.97;8.30;;;12.80;99.90;;;;;;5092258;28;20251;-82
2023/03/22 11:43:55;;;;;;;13.27;7.93;;;12.70;99.90;;;;;;5094044;28;20194;-77
2023/03/22 11:46:23;;;;;;;14.00;8.10;;;12.70;99.90;;;;;;5075451;28;20227;-77
2023/03/22 11:48:52;;;;;;;14.50;8.30;;;12.70;99.90;;;;;;5075218;28;20623;-78
2023/03/22 11:51:32;;;;;;;13.07;8.13;;;12.70;99.90;;;;;;5075961;28;20662;-81
2023/03/22 11:54:12;;;;;;;14.43;8.37;;;12.70;99.90;;;;;;5093561;28;20296;-80
2023/03/22 11:56:42;;;;;;;14.80;8.50;;;12.80;99.90;;;;;;5075044;28;20194;-79
2023/03/22 11:59:23;;;;;;;15.70;8.57;;;12.80;99.90;;;;;;5076014;28;20217;-79
2023/03/22 12:02:25;;;;;;;13.33;7.90;;;12.70;99.90;;;;;;5093147;28;20228;-81
2023/03/22 12:05:04;;;;;;;14.60;8.37;;;12.70;99.90;;;;;;5075054;28;20197;-77
2023/03/22 12:07:36;;;;;;;14.93;8.23;;;12.60;99.90;;;;;;5075173;28;20291;-76
2023/03/22 12:10:30;;;;;;;14.47;8.50;;;12.60;99.90;;;;;;5075040;28;20540;-81
2023/03/22 12:13:05;;;;;;;12.97;8.00;;;12.70;99.90;;;;;;5074935;28;20197;-77
2023/03/22 12:15:47;;;;;;;17.37;8.83;;;12.80;99.90;;;;;;5074743;28;20181;-81
2023/03/22 12:18:32;;;;;;;13.67;8.03;;;12.80;99.90;;;;;;5030471;28;20203;-81
2023/03/22 12:21:00;;;;;;;12.97;7.87;;;12.90;99.90;;;;;;5030572;28;20223;-80
2023/03/22 12:23:30;;;;;;;14.47;8.57;;;13.00;99.90;;;;;;5013657;28;20307;-79
2023/03/22 12:26:02;;;;;;;14.27;8.10;;;13.20;99.90;;;;;;5014215;28;20712;-80
2023/03/22 12:28:41;;;;;;;14.80;8.30;;;13.20;99.90;;;;;;5030114;28;20564;-83
2023/03/22 12:31:20;;;;;;;15.33;8.00;;;13.30;99.90;;;;;;5013774;28;20694;-81
2023/03/22 12:33:56;;;;;;;14.03;7.93;;;13.40;99.90;;;;;;5014390;28;20668;-81
2023/03/22 12:36:34;;;;;;;11.13;7.07;;;13.70;99.90;;;;;;5013325;28;20262;-81
2023/03/22 12:39:05;;;;;;;13.63;7.47;;;13.80;99.90;;;;;;5013998;28;20531;-83
2023/03/22 12:41:38;;;;;;;12.60;7.53;;;13.90;99.90;;;;;;5013688;28;20317;-84
2023/03/22 12:44:26;;;;;;;12.73;7.57;;;13.90;99.90;;;;;;5030233;28;20196;-83
2023/03/22 12:47:11;;;;;;;12.00;6.97;;;13.60;99.90;;;;;;5013696;28;20233;-82
2023/03/22 12:50:01;;;;;;;12.60;6.87;;;13.60;99.90;;;;;;5053116;28;20227;-82
2023/03/22 12:52:39;;;;;;;11.80;7.07;;;13.70;99.90;;;;;;5074563;28;20204;-84
2023/03/22 12:55:25;;;;;;;11.60;7.30;;;13.70;99.90;;;;;;5074283;28;20696;-82
2023/03/22 12:57:55;;;;;;;13.30;7.30;;;13.80;99.90;;;;;;5092327;28;20196;-83
2023/03/22 13:00:41;;;;;;;12.60;7.03;;;13.80;99.90;;;;;;5074091;28;20190;-78